sensor_id;sensor_type;location;lat;lon;timestamp;P1;durP1;ratioP1;P2;durP2;ratioP2
18818;SDS011;9537;45.594;9.294;2022-12-16T00:01:01;12.07;;;8.97;;
18818;SDS011;9537;45.594;9.294;2022-12-16T00:02:04;11.43;;;8.43;;
18818;SDS011;9537;45.594;9.294;2022-12-16T00:03:07;11.50;;;8.17;;
18818;SDS011;9537;45.594;9.294;2022-12-16T00:04:09;10.17;;;8.10;;
18818;SDS011;9537;45.594;9.294;2022-12-16T00:05:10;9.23;;;7.80;;
18818;SDS011;9537;45.594;9.294;2022-12-16T00:06:12;10.13;;;7.90;;
18818;SDS011;9537;45.594;9.294;2022-12-16T00:07:13;10.60;;;8.00;;
18818;SDS011;9537;45.594;9.294;2022-12-16T00:08:15;8.70;;;7.33;;
18818;SDS011;9537;45.594;9.294;2022-12-16T00:09:16;10.63;;;8.20;;
18818;SDS011;9537;45.594;9.294;2022-12-16T00:10:18;10.17;;;7.87;;
18818;SDS011;9537;45.594;9.294;2022-12-16T00:11:19;9.93;;;7.53;;
18818;SDS011;9537;45.594;9.294;2022-12-16T00:12:21;8.70;;;7.60;;
18818;SDS011;9537;45.594;9.294;2022-12-16T00:13:22;9.63;;;7.63;;
18818;SDS011;9537;45.594;9.294;2022-12-16T00:14:24;9.17;;;7.50;;
18818;SDS011;9537;45.594;9.294;2022-12-16T00:15:26;9.87;;;7.93;;
18818;SDS011;9537;45.594;9.294;2022-12-16T00:16:28;10.80;;;8.17;;
18818;SDS011;9537;45.594;9.294;2022-12-16T00:17:29;10.20;;;7.77;;
18818;SDS011;9537;45.594;9.294;2022-12-16T00:18:33;10.70;;;8.10;;
18818;SDS011;9537;45.594;9.294;2022-12-16T00:19:34;9.27;;;7.70;;
18818;SDS011;9537;45.594;9.294;2022-12-16T00:20:36;10.43;;;7.50;;
18818;SDS011;9537;45.594;9.294;2022-12-16T00:21:37;8.30;;;7.37;;
18818;SDS011;9537;45.594;9.294;2022-12-16T00:22:39;11.37;;;7.43;;
18818;SDS011;9537;45.594;9.294;2022-12-16T00:23:40;9.90;;;7.63;;
18818;SDS011;9537;45.594;9.294;2022-12-16T00:24:42;10.83;;;8.20;;
18818;SDS011;9537;45.594;9.294;2022-12-16T00:25:43;10.60;;;7.07;;
18818;SDS011;9537;45.594;9.294;2022-12-16T00:26:46;9.63;;;7.63;;
18818;SDS011;9537;45.594;9.294;2022-12-16T00:27:47;9.03;;;7.07;;
18818;SDS011;9537;45.594;9.294;2022-12-16T00:28:48;9.37;;;7.50;;
18818;SDS011;9537;45.594;9.294;2022-12-16T00:29:50;10.23;;;8.17;;
18818;SDS011;9537;45.594;9.294;2022-12-16T00:30:52;9.57;;;7.80;;
18818;SDS011;9537;45.594;9.294;2022-12-16T00:31:54;11.43;;;8.20;;
18818;SDS011;9537;45.594;9.294;2022-12-16T00:32:56;12.03;;;8.80;;
18818;SDS011;9537;45.594;9.294;2022-12-16T00:33:59;9.70;;;8.27;;
18818;SDS011;9537;45.594;9.294;2022-12-16T00:35:01;9.63;;;7.70;;
18818;SDS011;9537;45.594;9.294;2022-12-16T00:36:04;11.70;;;8.23;;
18818;SDS011;9537;45.594;9.294;2022-12-16T00:37:06;9.47;;;7.57;;
18818;SDS011;9537;45.594;9.294;2022-12-16T00:38:08;9.93;;;8.10;;
18818;SDS011;9537;45.594;9.294;2022-12-16T00:39:09;10.47;;;8.00;;
18818;SDS011;9537;45.594;9.294;2022-12-16T00:40:11;11.50;;;8.50;;
18818;SDS011;9537;45.594;9.294;2022-12-16T00:41:13;10.73;;;8.33;;
18818;SDS011;9537;45.594;9.294;2022-12-16T00:42:14;10.50;;;8.40;;
18818;SDS011;9537;45.594;9.294;2022-12-16T00:43:16;11.07;;;8.70;;
18818;SDS011;9537;45.594;9.294;2022-12-16T00:44:17;10.00;;;7.73;;
18818;SDS011;9537;45.594;9.294;2022-12-16T00:45:19;11.87;;;8.30;;
18818;SDS011;9537;45.594;9.294;2022-12-16T00:46:20;10.90;;;8.63;;
18818;SDS011;9537;45.594;9.294;2022-12-16T00:47:22;10.00;;;7.83;;
18818;SDS011;9537;45.594;9.294;2022-12-16T00:48:23;11.10;;;8.73;;
18818;SDS011;9537;45.594;9.294;2022-12-16T00:49:26;10.70;;;8.77;;
18818;SDS011;9537;45.594;9.294;2022-12-16T00:50:27;10.47;;;7.57;;
18818;SDS011;9537;45.594;9.294;2022-12-16T00:51:29;9.97;;;8.30;;
18818;SDS011;9537;45.594;9.294;2022-12-16T00:52:30;11.37;;;7.93;;
18818;SDS011;9537;45.594;9.294;2022-12-16T00:53:32;9.67;;;7.70;;
18818;SDS011;9537;45.594;9.294;2022-12-16T00:54:34;11.67;;;8.30;;
18818;SDS011;9537;45.594;9.294;2022-12-16T00:55:37;11.37;;;8.07;;
18818;SDS011;9537;45.594;9.294;2022-12-16T00:56:38;9.23;;;7.30;;
18818;SDS011;9537;45.594;9.294;2022-12-16T00:57:40;10.50;;;8.20;;
18818;SDS011;9537;45.594;9.294;2022-12-16T00:58:41;8.93;;;7.17;;
18818;SDS011;9537;45.594;9.294;2022-12-16T00:59:43;10.60;;;7.63;;
18818;SDS011;9537;45.594;9.294;2022-12-16T01:00:44;10.37;;;7.90;;
18818;SDS011;9537;45.594;9.294;2022-12-16T01:01:46;12.00;;;8.67;;
18818;SDS011;9537;45.594;9.294;2022-12-16T01:02:49;10.20;;;7.77;;
18818;SDS011;9537;45.594;9.294;2022-12-16T01:03:51;9.70;;;7.80;;
18818;SDS011;9537;45.594;9.294;2022-12-16T01:04:57;10.03;;;7.17;;
18818;SDS011;9537;45.594;9.294;2022-12-16T01:05:58;10.73;;;8.40;;
18818;SDS011;9537;45.594;9.294;2022-12-16T01:07:00;8.67;;;7.57;;
18818;SDS011;9537;45.594;9.294;2022-12-16T01:08:01;8.87;;;7.70;;
18818;SDS011;9537;45.594;9.294;2022-12-16T01:09:04;9.93;;;8.10;;
18818;SDS011;9537;45.594;9.294;2022-12-16T01:10:05;12.13;;;8.13;;
18818;SDS011;9537;45.594;9.294;2022-12-16T01:11:09;10.20;;;7.37;;
18818;SDS011;9537;45.594;9.294;2022-12-16T01:12:10;9.90;;;7.43;;
18818;SDS011;9537;45.594;9.294;2022-12-16T01:13:13;9.77;;;7.60;;
18818;SDS011;9537;45.594;9.294;2022-12-16T01:14:15;9.37;;;7.20;;
18818;SDS011;9537;45.594;9.294;2022-12-16T01:15:20;10.63;;;7.60;;
18818;SDS011;9537;45.594;9.294;2022-12-16T01:16:21;10.93;;;8.07;;
18818;SDS011;9537;45.594;9.294;2022-12-16T01:17:23;11.20;;;8.17;;
18818;SDS011;9537;45.594;9.294;2022-12-16T01:18:25;11.33;;;8.37;;
18818;SDS011;9537;45.594;9.294;2022-12-16T01:19:27;11.03;;;8.33;;
18818;SDS011;9537;45.594;9.294;2022-12-16T01:20:29;9.77;;;7.37;;
18818;SDS011;9537;45.594;9.294;2022-12-16T01:21:32;9.83;;;7.83;;
18818;SDS011;9537;45.594;9.294;2022-12-16T01:22:34;10.90;;;8.27;;
18818;SDS011;9537;45.594;9.294;2022-12-16T01:23:36;10.63;;;7.63;;
18818;SDS011;9537;45.594;9.294;2022-12-16T01:24:37;10.30;;;7.97;;
18818;SDS011;9537;45.594;9.294;2022-12-16T01:25:39;10.00;;;7.73;;
18818;SDS011;9537;45.594;9.294;2022-12-16T01:26:40;11.33;;;8.10;;
18818;SDS011;9537;45.594;9.294;2022-12-16T01:27:42;10.63;;;8.00;;
18818;SDS011;9537;45.594;9.294;2022-12-16T01:28:43;9.70;;;7.20;;
18818;SDS011;9537;45.594;9.294;2022-12-16T01:29:46;9.93;;;8.07;;
18818;SDS011;9537;45.594;9.294;2022-12-16T01:30:46;11.00;;;7.90;;
18818;SDS011;9537;45.594;9.294;2022-12-16T01:31:49;10.73;;;7.40;;
18818;SDS011;9537;45.594;9.294;2022-12-16T01:32:50;10.03;;;7.77;;
18818;SDS011;9537;45.594;9.294;2022-12-16T01:33:53;11.27;;;8.47;;
18818;SDS011;9537;45.594;9.294;2022-12-16T01:34:54;9.57;;;7.67;;
18818;SDS011;9537;45.594;9.294;2022-12-16T01:36:01;10.43;;;7.73;;
18818;SDS011;9537;45.594;9.294;2022-12-16T01:37:05;9.90;;;7.90;;
18818;SDS011;9537;45.594;9.294;2022-12-16T01:38:06;9.97;;;8.10;;
18818;SDS011;9537;45.594;9.294;2022-12-16T01:39:09;10.73;;;7.93;;
18818;SDS011;9537;45.594;9.294;2022-12-16T01:40:13;10.43;;;8.27;;
18818;SDS011;9537;45.594;9.294;2022-12-16T01:41:17;11.00;;;7.37;;
18818;SDS011;9537;45.594;9.294;2022-12-16T01:42:20;10.17;;;7.57;;
18818;SDS011;9537;45.594;9.294;2022-12-16T01:43:23;9.80;;;7.60;;
18818;SDS011;9537;45.594;9.294;2022-12-16T01:44:27;10.80;;;7.67;;
18818;SDS011;9537;45.594;9.294;2022-12-16T01:45:29;10.10;;;7.60;;
18818;SDS011;9537;45.594;9.294;2022-12-16T01:46:33;12.40;;;8.03;;
18818;SDS011;9537;45.594;9.294;2022-12-16T01:47:38;11.47;;;8.53;;
18818;SDS011;9537;45.594;9.294;2022-12-16T01:48:42;11.17;;;7.97;;
18818;SDS011;9537;45.594;9.294;2022-12-16T01:49:48;11.20;;;8.17;;
18818;SDS011;9537;45.594;9.294;2022-12-16T01:50:53;9.13;;;7.23;;
18818;SDS011;9537;45.594;9.294;2022-12-16T01:52:04;10.17;;;7.70;;
18818;SDS011;9537;45.594;9.294;2022-12-16T01:53:09;11.17;;;7.80;;
18818;SDS011;9537;45.594;9.294;2022-12-16T01:54:12;12.77;;;8.17;;
18818;SDS011;9537;45.594;9.294;2022-12-16T01:55:19;10.47;;;7.97;;
18818;SDS011;9537;45.594;9.294;2022-12-16T01:56:25;12.27;;;8.43;;
18818;SDS011;9537;45.594;9.294;2022-12-16T01:57:30;9.77;;;7.50;;
18818;SDS011;9537;45.594;9.294;2022-12-16T01:58:35;11.60;;;8.00;;
18818;SDS011;9537;45.594;9.294;2022-12-16T01:59:41;11.17;;;8.03;;
18818;SDS011;9537;45.594;9.294;2022-12-16T02:00:46;10.63;;;7.70;;
18818;SDS011;9537;45.594;9.294;2022-12-16T02:01:49;10.97;;;7.83;;
18818;SDS011;9537;45.594;9.294;2022-12-16T02:02:50;10.97;;;7.90;;
18818;SDS011;9537;45.594;9.294;2022-12-16T02:03:54;11.33;;;7.63;;
18818;SDS011;9537;45.594;9.294;2022-12-16T02:05:01;12.93;;;8.03;;
18818;SDS011;9537;45.594;9.294;2022-12-16T02:06:20;12.37;;;7.83;;
18818;SDS011;9537;45.594;9.294;2022-12-16T02:07:24;11.17;;;8.80;;
18818;SDS011;9537;45.594;9.294;2022-12-16T02:08:25;9.40;;;7.40;;
18818;SDS011;9537;45.594;9.294;2022-12-16T02:09:27;11.20;;;7.87;;
18818;SDS011;9537;45.594;9.294;2022-12-16T02:10:32;11.33;;;8.67;;
18818;SDS011;9537;45.594;9.294;2022-12-16T02:11:53;11.97;;;8.17;;
18818;SDS011;9537;45.594;9.294;2022-12-16T02:13:18;12.60;;;8.80;;
18818;SDS011;9537;45.594;9.294;2022-12-16T02:14:32;14.70;;;9.03;;
18818;SDS011;9537;45.594;9.294;2022-12-16T02:15:46;11.23;;;8.10;;
18818;SDS011;9537;45.594;9.294;2022-12-16T02:16:53;12.70;;;8.60;;
18818;SDS011;9537;45.594;9.294;2022-12-16T02:18:02;12.20;;;8.37;;
18818;SDS011;9537;45.594;9.294;2022-12-16T02:19:16;14.40;;;9.37;;
18818;SDS011;9537;45.594;9.294;2022-12-16T02:22:14;13.30;;;8.57;;
18818;SDS011;9537;45.594;9.294;2022-12-16T02:25:27;13.27;;;9.77;;
18818;SDS011;9537;45.594;9.294;2022-12-16T02:28:29;13.97;;;8.97;;
18818;SDS011;9537;45.594;9.294;2022-12-16T02:29:56;12.93;;;8.93;;
18818;SDS011;9537;45.594;9.294;2022-12-16T02:31:19;13.73;;;9.10;;
18818;SDS011;9537;45.594;9.294;2022-12-16T02:32:27;13.47;;;9.67;;
18818;SDS011;9537;45.594;9.294;2022-12-16T02:33:46;13.50;;;9.43;;
18818;SDS011;9537;45.594;9.294;2022-12-16T02:34:57;13.73;;;8.63;;
18818;SDS011;9537;45.594;9.294;2022-12-16T02:36:06;14.67;;;9.47;;
18818;SDS011;9537;45.594;9.294;2022-12-16T02:37:18;15.07;;;9.20;;
18818;SDS011;9537;45.594;9.294;2022-12-16T02:38:25;16.03;;;9.33;;
18818;SDS011;9537;45.594;9.294;2022-12-16T02:39:38;15.87;;;9.53;;
18818;SDS011;9537;45.594;9.294;2022-12-16T02:40:43;14.63;;;9.47;;
18818;SDS011;9537;45.594;9.294;2022-12-16T02:41:52;14.90;;;9.80;;
18818;SDS011;9537;45.594;9.294;2022-12-16T02:43:02;15.63;;;9.63;;
18818;SDS011;9537;45.594;9.294;2022-12-16T02:44:09;15.57;;;10.07;;
18818;SDS011;9537;45.594;9.294;2022-12-16T02:45:12;15.87;;;9.83;;
18818;SDS011;9537;45.594;9.294;2022-12-16T02:46:18;16.30;;;10.23;;
18818;SDS011;9537;45.594;9.294;2022-12-16T02:47:23;16.27;;;10.43;;
18818;SDS011;9537;45.594;9.294;2022-12-16T02:48:25;17.57;;;10.20;;
18818;SDS011;9537;45.594;9.294;2022-12-16T02:49:45;14.67;;;10.13;;
18818;SDS011;9537;45.594;9.294;2022-12-16T02:50:50;14.43;;;9.70;;
18818;SDS011;9537;45.594;9.294;2022-12-16T02:51:52;14.07;;;9.60;;
18818;SDS011;9537;45.594;9.294;2022-12-16T02:52:55;16.83;;;10.10;;
18818;SDS011;9537;45.594;9.294;2022-12-16T02:53:57;15.33;;;9.63;;
18818;SDS011;9537;45.594;9.294;2022-12-16T02:55:00;15.97;;;10.07;;
18818;SDS011;9537;45.594;9.294;2022-12-16T02:56:05;16.43;;;10.40;;
18818;SDS011;9537;45.594;9.294;2022-12-16T02:57:28;17.03;;;10.07;;
18818;SDS011;9537;45.594;9.294;2022-12-16T02:58:42;16.13;;;10.07;;
18818;SDS011;9537;45.594;9.294;2022-12-16T02:59:52;16.87;;;10.23;;
18818;SDS011;9537;45.594;9.294;2022-12-16T03:01:03;15.97;;;9.67;;
18818;SDS011;9537;45.594;9.294;2022-12-16T03:02:11;17.93;;;11.10;;
18818;SDS011;9537;45.594;9.294;2022-12-16T03:03:19;16.00;;;10.17;;
18818;SDS011;9537;45.594;9.294;2022-12-16T03:04:30;17.97;;;10.57;;
18818;SDS011;9537;45.594;9.294;2022-12-16T03:05:38;18.03;;;10.33;;
18818;SDS011;9537;45.594;9.294;2022-12-16T03:06:48;17.87;;;11.17;;
18818;SDS011;9537;45.594;9.294;2022-12-16T03:07:52;17.80;;;10.87;;
18818;SDS011;9537;45.594;9.294;2022-12-16T03:08:58;16.70;;;11.00;;
18818;SDS011;9537;45.594;9.294;2022-12-16T03:10:03;16.40;;;10.33;;
18818;SDS011;9537;45.594;9.294;2022-12-16T03:11:09;20.73;;;10.67;;
18818;SDS011;9537;45.594;9.294;2022-12-16T03:12:12;17.87;;;10.73;;
18818;SDS011;9537;45.594;9.294;2022-12-16T03:13:19;18.90;;;11.93;;
18818;SDS011;9537;45.594;9.294;2022-12-16T03:14:21;19.80;;;12.03;;
18818;SDS011;9537;45.594;9.294;2022-12-16T03:15:28;18.00;;;11.23;;
18818;SDS011;9537;45.594;9.294;2022-12-16T03:16:33;19.63;;;12.33;;
18818;SDS011;9537;45.594;9.294;2022-12-16T03:17:37;20.63;;;11.63;;
18818;SDS011;9537;45.594;9.294;2022-12-16T03:18:39;18.87;;;11.20;;
18818;SDS011;9537;45.594;9.294;2022-12-16T03:19:46;20.93;;;12.13;;
18818;SDS011;9537;45.594;9.294;2022-12-16T03:20:53;19.33;;;11.97;;
18818;SDS011;9537;45.594;9.294;2022-12-16T03:21:59;18.43;;;11.80;;
18818;SDS011;9537;45.594;9.294;2022-12-16T03:23:07;18.53;;;11.77;;
18818;SDS011;9537;45.594;9.294;2022-12-16T03:24:12;17.63;;;11.03;;
18818;SDS011;9537;45.594;9.294;2022-12-16T03:25:14;19.63;;;11.23;;
18818;SDS011;9537;45.594;9.294;2022-12-16T03:26:18;18.40;;;11.83;;
18818;SDS011;9537;45.594;9.294;2022-12-16T03:27:28;18.40;;;10.60;;
18818;SDS011;9537;45.594;9.294;2022-12-16T03:28:38;18.13;;;11.30;;
18818;SDS011;9537;45.594;9.294;2022-12-16T03:29:45;20.77;;;12.10;;
18818;SDS011;9537;45.594;9.294;2022-12-16T03:30:52;22.57;;;11.50;;
18818;SDS011;9537;45.594;9.294;2022-12-16T03:32:02;21.90;;;12.27;;
18818;SDS011;9537;45.594;9.294;2022-12-16T03:33:09;20.33;;;12.00;;
18818;SDS011;9537;45.594;9.294;2022-12-16T03:34:20;22.03;;;12.37;;
18818;SDS011;9537;45.594;9.294;2022-12-16T03:35:29;20.33;;;11.27;;
18818;SDS011;9537;45.594;9.294;2022-12-16T03:36:33;22.13;;;12.90;;
18818;SDS011;9537;45.594;9.294;2022-12-16T03:37:37;19.53;;;10.77;;
18818;SDS011;9537;45.594;9.294;2022-12-16T03:38:40;24.67;;;12.47;;
18818;SDS011;9537;45.594;9.294;2022-12-16T03:39:45;21.90;;;11.73;;
18818;SDS011;9537;45.594;9.294;2022-12-16T03:40:49;22.90;;;11.60;;
18818;SDS011;9537;45.594;9.294;2022-12-16T03:41:52;19.80;;;11.93;;
18818;SDS011;9537;45.594;9.294;2022-12-16T03:42:56;21.30;;;12.83;;
18818;SDS011;9537;45.594;9.294;2022-12-16T03:43:58;20.13;;;12.23;;
18818;SDS011;9537;45.594;9.294;2022-12-16T03:45:01;22.20;;;12.67;;
18818;SDS011;9537;45.594;9.294;2022-12-16T03:46:05;21.03;;;11.80;;
18818;SDS011;9537;45.594;9.294;2022-12-16T03:47:08;18.63;;;11.43;;
18818;SDS011;9537;45.594;9.294;2022-12-16T03:48:12;23.53;;;12.97;;
18818;SDS011;9537;45.594;9.294;2022-12-16T03:49:16;22.57;;;12.60;;
18818;SDS011;9537;45.594;9.294;2022-12-16T03:50:17;26.77;;;13.70;;
18818;SDS011;9537;45.594;9.294;2022-12-16T03:51:23;25.10;;;13.30;;
18818;SDS011;9537;45.594;9.294;2022-12-16T03:52:25;21.97;;;12.27;;
18818;SDS011;9537;45.594;9.294;2022-12-16T03:53:26;19.87;;;11.80;;
18818;SDS011;9537;45.594;9.294;2022-12-16T03:54:28;24.40;;;13.23;;
18818;SDS011;9537;45.594;9.294;2022-12-16T03:55:29;23.20;;;12.83;;
18818;SDS011;9537;45.594;9.294;2022-12-16T03:56:31;22.20;;;12.43;;
18818;SDS011;9537;45.594;9.294;2022-12-16T03:57:32;22.20;;;13.43;;
18818;SDS011;9537;45.594;9.294;2022-12-16T03:58:34;23.30;;;12.63;;
18818;SDS011;9537;45.594;9.294;2022-12-16T03:59:37;22.13;;;12.40;;
18818;SDS011;9537;45.594;9.294;2022-12-16T04:00:39;24.37;;;12.50;;
18818;SDS011;9537;45.594;9.294;2022-12-16T04:01:40;24.90;;;12.47;;
18818;SDS011;9537;45.594;9.294;2022-12-16T04:02:43;22.63;;;11.93;;
18818;SDS011;9537;45.594;9.294;2022-12-16T04:03:45;22.13;;;12.03;;
18818;SDS011;9537;45.594;9.294;2022-12-16T04:04:47;25.57;;;12.97;;
18818;SDS011;9537;45.594;9.294;2022-12-16T04:05:48;21.60;;;11.90;;
18818;SDS011;9537;45.594;9.294;2022-12-16T04:06:50;23.57;;;12.40;;
18818;SDS011;9537;45.594;9.294;2022-12-16T04:08:06;24.60;;;12.80;;
18818;SDS011;9537;45.594;9.294;2022-12-16T04:09:08;23.80;;;12.50;;
18818;SDS011;9537;45.594;9.294;2022-12-16T04:10:09;23.30;;;11.97;;
18818;SDS011;9537;45.594;9.294;2022-12-16T04:11:11;24.87;;;13.60;;
18818;SDS011;9537;45.594;9.294;2022-12-16T04:12:31;24.10;;;12.70;;
18818;SDS011;9537;45.594;9.294;2022-12-16T04:13:50;24.17;;;12.03;;
18818;SDS011;9537;45.594;9.294;2022-12-16T04:15:10;23.07;;;11.23;;
18818;SDS011;9537;45.594;9.294;2022-12-16T04:16:32;21.70;;;11.47;;
18818;SDS011;9537;45.594;9.294;2022-12-16T04:17:51;30.80;;;12.93;;
18818;SDS011;9537;45.594;9.294;2022-12-16T04:19:14;24.53;;;12.87;;
18818;SDS011;9537;45.594;9.294;2022-12-16T04:20:41;26.83;;;12.67;;
18818;SDS011;9537;45.594;9.294;2022-12-16T04:22:02;22.17;;;11.83;;
18818;SDS011;9537;45.594;9.294;2022-12-16T04:23:22;24.83;;;12.87;;
18818;SDS011;9537;45.594;9.294;2022-12-16T04:24:44;22.97;;;11.57;;
18818;SDS011;9537;45.594;9.294;2022-12-16T04:25:46;23.80;;;12.50;;
18818;SDS011;9537;45.594;9.294;2022-12-16T04:26:47;23.93;;;12.73;;
18818;SDS011;9537;45.594;9.294;2022-12-16T04:28:07;25.53;;;13.93;;
18818;SDS011;9537;45.594;9.294;2022-12-16T04:29:09;23.40;;;12.23;;
18818;SDS011;9537;45.594;9.294;2022-12-16T04:30:11;24.37;;;13.03;;
18818;SDS011;9537;45.594;9.294;2022-12-16T04:31:19;21.13;;;12.30;;
18818;SDS011;9537;45.594;9.294;2022-12-16T04:32:21;22.77;;;12.10;;
18818;SDS011;9537;45.594;9.294;2022-12-16T04:33:22;27.90;;;13.20;;
18818;SDS011;9537;45.594;9.294;2022-12-16T04:34:44;25.50;;;12.73;;
18818;SDS011;9537;45.594;9.294;2022-12-16T04:35:45;23.97;;;12.00;;
18818;SDS011;9537;45.594;9.294;2022-12-16T04:37:04;23.67;;;12.37;;
18818;SDS011;9537;45.594;9.294;2022-12-16T04:38:24;26.17;;;13.80;;
18818;SDS011;9537;45.594;9.294;2022-12-16T04:39:43;24.40;;;12.43;;
18818;SDS011;9537;45.594;9.294;2022-12-16T04:41:03;22.67;;;12.33;;
18818;SDS011;9537;45.594;9.294;2022-12-16T04:42:22;25.90;;;13.10;;
18818;SDS011;9537;45.594;9.294;2022-12-16T04:43:42;24.17;;;13.03;;
18818;SDS011;9537;45.594;9.294;2022-12-16T04:45:01;22.53;;;12.30;;
18818;SDS011;9537;45.594;9.294;2022-12-16T04:46:21;27.87;;;13.83;;
18818;SDS011;9537;45.594;9.294;2022-12-16T04:47:40;23.27;;;12.17;;
18818;SDS011;9537;45.594;9.294;2022-12-16T04:49:00;25.60;;;12.97;;
18818;SDS011;9537;45.594;9.294;2022-12-16T04:50:20;22.80;;;12.63;;
18818;SDS011;9537;45.594;9.294;2022-12-16T04:51:40;24.13;;;12.37;;
18818;SDS011;9537;45.594;9.294;2022-12-16T04:52:59;27.07;;;13.57;;
18818;SDS011;9537;45.594;9.294;2022-12-16T04:54:18;25.83;;;12.70;;
18818;SDS011;9537;45.594;9.294;2022-12-16T04:55:38;22.00;;;12.10;;
18818;SDS011;9537;45.594;9.294;2022-12-16T04:56:57;25.27;;;13.47;;
18818;SDS011;9537;45.594;9.294;2022-12-16T04:58:17;27.37;;;13.23;;
18818;SDS011;9537;45.594;9.294;2022-12-16T04:59:36;24.63;;;13.53;;
18818;SDS011;9537;45.594;9.294;2022-12-16T05:00:56;27.37;;;13.33;;
18818;SDS011;9537;45.594;9.294;2022-12-16T05:02:15;26.93;;;13.10;;
18818;SDS011;9537;45.594;9.294;2022-12-16T05:03:34;25.77;;;13.30;;
18818;SDS011;9537;45.594;9.294;2022-12-16T05:04:56;24.43;;;13.03;;
18818;SDS011;9537;45.594;9.294;2022-12-16T05:06:17;27.67;;;13.80;;
18818;SDS011;9537;45.594;9.294;2022-12-16T05:07:37;27.90;;;13.30;;
18818;SDS011;9537;45.594;9.294;2022-12-16T05:09:02;29.47;;;14.27;;
18818;SDS011;9537;45.594;9.294;2022-12-16T05:10:22;26.13;;;12.40;;
18818;SDS011;9537;45.594;9.294;2022-12-16T05:11:41;24.87;;;13.53;;
18818;SDS011;9537;45.594;9.294;2022-12-16T05:13:15;27.30;;;13.50;;
18818;SDS011;9537;45.594;9.294;2022-12-16T05:14:35;24.67;;;12.67;;
18818;SDS011;9537;45.594;9.294;2022-12-16T05:15:54;25.90;;;12.63;;
18818;SDS011;9537;45.594;9.294;2022-12-16T05:17:13;22.13;;;11.67;;
18818;SDS011;9537;45.594;9.294;2022-12-16T05:18:33;24.73;;;12.33;;
18818;SDS011;9537;45.594;9.294;2022-12-16T05:19:52;24.70;;;12.67;;
18818;SDS011;9537;45.594;9.294;2022-12-16T05:21:12;25.27;;;12.90;;
18818;SDS011;9537;45.594;9.294;2022-12-16T05:22:32;23.90;;;12.80;;
18818;SDS011;9537;45.594;9.294;2022-12-16T05:23:52;27.23;;;13.10;;
18818;SDS011;9537;45.594;9.294;2022-12-16T05:25:11;23.80;;;13.00;;
18818;SDS011;9537;45.594;9.294;2022-12-16T05:26:31;23.50;;;12.57;;
18818;SDS011;9537;45.594;9.294;2022-12-16T05:27:51;26.07;;;12.67;;
18818;SDS011;9537;45.594;9.294;2022-12-16T05:29:12;22.90;;;12.47;;
18818;SDS011;9537;45.594;9.294;2022-12-16T05:30:31;24.13;;;13.57;;
18818;SDS011;9537;45.594;9.294;2022-12-16T05:31:50;23.07;;;12.20;;
18818;SDS011;9537;45.594;9.294;2022-12-16T05:33:09;25.93;;;13.70;;
18818;SDS011;9537;45.594;9.294;2022-12-16T05:34:29;24.57;;;13.13;;
18818;SDS011;9537;45.594;9.294;2022-12-16T05:35:48;27.70;;;13.93;;
18818;SDS011;9537;45.594;9.294;2022-12-16T05:37:07;23.23;;;13.83;;
18818;SDS011;9537;45.594;9.294;2022-12-16T05:38:28;24.60;;;12.40;;
18818;SDS011;9537;45.594;9.294;2022-12-16T05:39:47;25.50;;;13.17;;
18818;SDS011;9537;45.594;9.294;2022-12-16T05:41:07;26.43;;;14.37;;
18818;SDS011;9537;45.594;9.294;2022-12-16T05:42:26;25.60;;;12.67;;
18818;SDS011;9537;45.594;9.294;2022-12-16T05:43:45;27.17;;;13.57;;
18818;SDS011;9537;45.594;9.294;2022-12-16T05:45:05;27.13;;;14.63;;
18818;SDS011;9537;45.594;9.294;2022-12-16T05:46:25;29.70;;;13.30;;
18818;SDS011;9537;45.594;9.294;2022-12-16T05:47:46;23.20;;;12.33;;
18818;SDS011;9537;45.594;9.294;2022-12-16T05:49:06;26.43;;;13.57;;
18818;SDS011;9537;45.594;9.294;2022-12-16T05:50:26;26.37;;;13.40;;
18818;SDS011;9537;45.594;9.294;2022-12-16T05:51:45;23.43;;;12.87;;
18818;SDS011;9537;45.594;9.294;2022-12-16T05:53:04;28.20;;;13.77;;
18818;SDS011;9537;45.594;9.294;2022-12-16T05:54:25;24.57;;;13.93;;
18818;SDS011;9537;45.594;9.294;2022-12-16T05:55:44;27.50;;;14.47;;
18818;SDS011;9537;45.594;9.294;2022-12-16T05:57:04;25.37;;;12.97;;
18818;SDS011;9537;45.594;9.294;2022-12-16T05:58:23;27.57;;;13.97;;
18818;SDS011;9537;45.594;9.294;2022-12-16T05:59:43;26.00;;;12.93;;
18818;SDS011;9537;45.594;9.294;2022-12-16T06:01:02;25.37;;;13.43;;
18818;SDS011;9537;45.594;9.294;2022-12-16T06:02:30;30.10;;;12.73;;
18818;SDS011;9537;45.594;9.294;2022-12-16T06:03:49;25.40;;;12.43;;
18818;SDS011;9537;45.594;9.294;2022-12-16T06:05:09;27.37;;;14.63;;
18818;SDS011;9537;45.594;9.294;2022-12-16T06:06:28;26.30;;;13.73;;
18818;SDS011;9537;45.594;9.294;2022-12-16T06:07:49;27.80;;;13.63;;
18818;SDS011;9537;45.594;9.294;2022-12-16T06:09:20;29.03;;;13.60;;
18818;SDS011;9537;45.594;9.294;2022-12-16T06:10:41;28.33;;;14.20;;
18818;SDS011;9537;45.594;9.294;2022-12-16T06:12:01;29.97;;;15.87;;
18818;SDS011;9537;45.594;9.294;2022-12-16T06:13:21;26.17;;;13.40;;
18818;SDS011;9537;45.594;9.294;2022-12-16T06:14:41;29.37;;;14.60;;
18818;SDS011;9537;45.594;9.294;2022-12-16T06:16:00;30.80;;;14.30;;
18818;SDS011;9537;45.594;9.294;2022-12-16T06:17:20;28.80;;;14.70;;
18818;SDS011;9537;45.594;9.294;2022-12-16T06:18:40;27.50;;;14.53;;
18818;SDS011;9537;45.594;9.294;2022-12-16T06:19:59;29.80;;;14.83;;
18818;SDS011;9537;45.594;9.294;2022-12-16T06:21:18;27.90;;;14.67;;
18818;SDS011;9537;45.594;9.294;2022-12-16T06:22:49;26.03;;;13.77;;
18818;SDS011;9537;45.594;9.294;2022-12-16T06:24:09;26.43;;;13.97;;
18818;SDS011;9537;45.594;9.294;2022-12-16T06:25:28;30.37;;;14.97;;
18818;SDS011;9537;45.594;9.294;2022-12-16T06:26:49;26.73;;;13.47;;
18818;SDS011;9537;45.594;9.294;2022-12-16T06:28:08;28.80;;;14.53;;
18818;SDS011;9537;45.594;9.294;2022-12-16T06:29:27;29.03;;;14.57;;
18818;SDS011;9537;45.594;9.294;2022-12-16T06:30:47;24.97;;;13.20;;
18818;SDS011;9537;45.594;9.294;2022-12-16T06:32:06;27.53;;;14.40;;
18818;SDS011;9537;45.594;9.294;2022-12-16T06:33:25;25.27;;;14.27;;
18818;SDS011;9537;45.594;9.294;2022-12-16T06:34:44;27.33;;;13.43;;
18818;SDS011;9537;45.594;9.294;2022-12-16T06:36:04;25.20;;;13.70;;
18818;SDS011;9537;45.594;9.294;2022-12-16T06:37:24;27.23;;;13.93;;
18818;SDS011;9537;45.594;9.294;2022-12-16T06:38:43;30.73;;;15.10;;
18818;SDS011;9537;45.594;9.294;2022-12-16T06:40:03;29.00;;;13.50;;
18818;SDS011;9537;45.594;9.294;2022-12-16T06:41:23;27.07;;;13.43;;
18818;SDS011;9537;45.594;9.294;2022-12-16T06:42:44;28.30;;;15.40;;
18818;SDS011;9537;45.594;9.294;2022-12-16T06:44:04;27.60;;;14.60;;
18818;SDS011;9537;45.594;9.294;2022-12-16T06:45:23;27.77;;;14.90;;
18818;SDS011;9537;45.594;9.294;2022-12-16T06:46:42;23.57;;;13.23;;
18818;SDS011;9537;45.594;9.294;2022-12-16T06:48:02;32.17;;;14.97;;
18818;SDS011;9537;45.594;9.294;2022-12-16T06:49:22;25.07;;;13.53;;
18818;SDS011;9537;45.594;9.294;2022-12-16T06:50:41;28.33;;;14.47;;
18818;SDS011;9537;45.594;9.294;2022-12-16T06:52:00;28.40;;;14.10;;
18818;SDS011;9537;45.594;9.294;2022-12-16T06:53:20;24.27;;;14.03;;
18818;SDS011;9537;45.594;9.294;2022-12-16T06:54:54;23.53;;;12.57;;
18818;SDS011;9537;45.594;9.294;2022-12-16T06:56:13;26.43;;;13.93;;
18818;SDS011;9537;45.594;9.294;2022-12-16T06:57:32;27.17;;;14.57;;
18818;SDS011;9537;45.594;9.294;2022-12-16T06:58:49;28.53;;;14.87;;
18818;SDS011;9537;45.594;9.294;2022-12-16T07:00:09;25.33;;;13.53;;
18818;SDS011;9537;45.594;9.294;2022-12-16T07:01:29;27.00;;;13.60;;
18818;SDS011;9537;45.594;9.294;2022-12-16T07:02:49;25.33;;;14.37;;
18818;SDS011;9537;45.594;9.294;2022-12-16T07:04:05;24.00;;;14.70;;